Aeroporto :
LOGIN :

Iscrizione | Disclaimer

   EN    FR    IT 

 










Sommario :    VFR   VFR Marginale   IFR   IFR Intensivo   IFR Molto Intensivo
Visibilità : 
Base nubi : 
>= 8 km
>= 3000ft
5 / 8 km
1000 / 3000 ft
1500m / 5 km
500 / 1000 ft
800 / 1500m
200 / 500 ft
< 800m
< 200 ft
Simboli :   Temporali  Nebbia  Neve Forte  Precipitazioni Forti  Vento > 20 kt
SIGMETs :   Varie  Temporali  Ghiacco  Turbolenza  Onda orograficha  Ceneri Vulcaniche







- Altitudine del aeroporto : 598 ft
- Codice IATA : BQH
- Carte del aeroporto


EGKB - Biggin Hill

ULTIMO METAR :
  • 191420Z 06005KT 010V100 9999 SCT035 16/08 Q1010

METARs OBSOLETI :
  • 191350Z 08006KT 020V130 9999 SCT035 17/10 Q1010
  • 191320Z 05005KT 010V110 9999 SCT035 16/10 Q1010
  • 191250Z 04008KT 350V070 9999 SCT030 16/09 Q1010
  • 191220Z 05006KT 020V090 9999 SCT025 15/10 Q1010
  • 191150Z 05006KT 010V110 9999 BKN035 16/10 Q1010

TAF TAF EGKB
Valido dal 19 a 15 ore il 19 a 22 ore UTC


191401Z 1915/1922 06006KT 9999 SCT035
PROB30
TEMPO 1915/1919 8000 SHRA
Nessun NOTAM noto per questo aeroporto.



MetMap, La meteo Aeronautica in un colpo d'occhio ! - Copyright ORBIFLY Dicembre 2007 - Disclaimer

ORBIFLY MET'MAP TEAM :

Programmazione e sviluppo : Alexandra Zaïnal
Concezione e sviluppo : Baudouin d'Aumeries
Co-Programmazione e sviluppo : Marc-Olivier Méhu
Supporto tecnico e logistico : Manuel Goepfert
Aiuto per la traduzione : Arnaldo La Scala

Contatto : metmap@orbifly.com




FONTI E CREDITI :

   NOAA